METAR & TAF locaux

METAR
2019/05/22 19:30 LFST 221930Z AUTO VRB03KT CAVOK 15/07 Q1019 NOSIG
2019/05/22 19:20 EDSB 221920Z 02002KT CAVOK 15/09 Q1019
2019/05/22 19:30 LFGA 221930Z AUTO VRB02KT CAVOK 13/08 Q1019
TAF
2019/05/22 18:21 TAF LFST 221700Z 2218/2318 36005KT CAVOK PROB30 TEMPO 2302/2305 MIFG
2019/05/22 23:03 TAF TAF EDSB 212353Z 2123/2218 CNL
www.noaa.gov

Ne pas utiliser pour préparer ou effectuer un vol: Utilisez la documentation officielle disponible sur aviation.meteo.fr (Aéroweb)


"Le soleil du matin ne dure pas forcément toute la journée."

Animation satellite IR

Meteociel.fr

"Derrière chaque nuage se cache le ciel bleu."

Prévisions 7 jours


Meteoblue.com

"Quand les crapauds chantent, le beau temps s'avance !"

Vigilance météo

vigilance-meteo.fr

"Tout nuage n'enfante pas une tempête."
William Shakespeare